createdAt,value
2022-10-09T00:01:33.421Z,20.03
2022-10-09T00:04:01.218Z,20.07
2022-10-09T00:06:32.921Z,20.07
2022-10-09T00:09:05.303Z,20.06
2022-10-09T00:11:38.008Z,19.97
2022-10-09T00:14:06.202Z,20.00
2022-10-09T00:16:34.723Z,20.00
2022-10-09T00:19:03.886Z,20.00
2022-10-09T00:21:35.845Z,19.91
2022-10-09T00:24:04.896Z,20.01
2022-10-09T00:26:34.330Z,20.06
2022-10-09T00:29:02.098Z,20.07
2022-10-09T00:31:34.214Z,20.07
2022-10-09T00:34:17.940Z,20.04
2022-10-09T00:37:04.301Z,20.05
2022-10-09T00:39:37.446Z,20.05
2022-10-09T00:42:05.777Z,20.05
2022-10-09T00:44:55.072Z,20.07
2022-10-09T00:47:33.967Z,20.06
2022-10-09T00:50:42.761Z,20.06
2022-10-09T00:53:14.541Z,20.04
2022-10-09T00:55:43.853Z,20.02
2022-10-09T00:58:13.662Z,20.02
2022-10-09T01:00:42.322Z,20.03
2022-10-09T01:03:10.179Z,20.00
2022-10-09T01:05:56.153Z,20.00
2022-10-09T01:08:52.487Z,20.02
2022-10-09T01:11:39.821Z,20.03
2022-10-09T01:14:16.382Z,20.07
2022-10-09T01:17:03.209Z,20.03
2022-10-09T01:19:37.004Z,19.90
2022-10-09T01:22:29.754Z,19.75
2022-10-09T01:25:06.744Z,19.65
2022-10-09T01:27:36.667Z,19.68
2022-10-09T01:30:09.446Z,19.66
2022-10-09T01:32:47.731Z,19.68
2022-10-09T01:35:17.680Z,19.72
2022-10-09T01:37:47.788Z,19.62
2022-10-09T01:40:18.634Z,19.59
2022-10-09T01:42:49.894Z,19.59
2022-10-09T01:45:17.942Z,19.63
2022-10-09T01:47:45.709Z,19.65
2022-10-09T01:50:35.719Z,19.61
2022-10-09T01:53:14.789Z,19.55
2022-10-09T01:56:10.439Z,19.56
2022-10-09T01:58:52.909Z,19.55
2022-10-09T02:01:35.085Z,19.57
2022-10-09T02:04:08.083Z,19.48
2022-10-09T02:06:39.015Z,19.55
2022-10-09T02:09:13.488Z,19.55
2022-10-09T02:11:44.889Z,19.52
2022-10-09T02:14:12.971Z,19.38
2022-10-09T02:16:47.356Z,19.31
2022-10-09T02:19:44.596Z,19.26
2022-10-09T02:22:38.945Z,19.36
2022-10-09T02:25:26.062Z,19.40
2022-10-09T02:28:03.977Z,19.40
2022-10-09T02:31:10.007Z,19.30
2022-10-09T02:33:45.986Z,19.33
2022-10-09T02:36:24.148Z,19.39
2022-10-09T02:39:30.227Z,19.38
2022-10-09T02:42:16.846Z,19.38
2022-10-09T02:44:58.495Z,19.28
2022-10-09T02:50:43.811Z,19.03
2022-10-09T02:53:14.280Z,19.11
2022-10-09T02:55:46.814Z,19.09
2022-10-09T02:58:23.190Z,19.09
2022-10-09T03:00:52.676Z,19.00
2022-10-09T03:03:28.682Z,19.04
2022-10-09T03:06:14.120Z,18.91
2022-10-09T03:08:49.348Z,18.99
2022-10-09T03:11:22.047Z,18.90
2022-10-09T03:13:50.457Z,18.93
2022-10-09T03:16:24.593Z,18.88
2022-10-09T03:18:53.315Z,18.83
2022-10-09T03:21:28.345Z,18.82
2022-10-09T03:23:57.012Z,18.78
2022-10-09T03:26:26.573Z,18.80
2022-10-09T03:28:55.839Z,18.80
2022-10-09T03:31:52.527Z,18.78
2022-10-09T03:34:15.698Z,18.66
2022-10-09T03:36:43.828Z,18.49
2022-10-09T03:39:11.174Z,18.50
2022-10-09T03:41:38.641Z,18.57
2022-10-09T03:44:06.530Z,18.67
2022-10-09T03:46:34.306Z,18.68
2022-10-09T03:49:01.735Z,18.74
2022-10-09T03:51:29.237Z,18.72
2022-10-09T03:53:57.052Z,18.78
2022-10-09T03:56:24.752Z,18.71
2022-10-09T03:58:52.489Z,18.66
2022-10-09T04:01:20.386Z,18.67
2022-10-09T04:03:48.121Z,18.64
2022-10-09T04:06:18.855Z,18.65
2022-10-09T04:08:46.844Z,18.71
2022-10-09T04:11:14.468Z,18.70
2022-10-09T04:13:42.173Z,18.52
2022-10-09T04:16:13.149Z,18.57
2022-10-09T04:18:41.811Z,18.64
2022-10-09T04:21:09.553Z,18.60
2022-10-09T04:23:37.107Z,18.47
2022-10-09T04:26:04.797Z,18.51
2022-10-09T04:28:33.801Z,18.46
2022-10-09T04:31:05.611Z,18.42
2022-10-09T04:33:35.634Z,18.44
2022-10-09T04:36:04.244Z,18.38
2022-10-09T04:38:32.315Z,18.42
2022-10-09T04:41:05.942Z,18.46
2022-10-09T04:43:35.640Z,18.50
2022-10-09T04:46:20.161Z,18.51
2022-10-09T04:48:48.761Z,18.53
2022-10-09T04:51:18.687Z,18.60
2022-10-09T04:53:46.693Z,18.64
2022-10-09T04:56:23.100Z,18.62
2022-10-09T04:58:51.482Z,18.65
2022-10-09T05:01:25.718Z,18.65
2022-10-09T05:03:53.491Z,18.63
2022-10-09T05:06:22.680Z,18.64
2022-10-09T05:08:50.701Z,18.65
2022-10-09T05:11:20.475Z,18.63
2022-10-09T05:13:53.606Z,18.64
2022-10-09T05:16:27.434Z,18.58
2022-10-09T05:18:57.782Z,18.63
2022-10-09T05:21:26.423Z,18.64
2022-10-09T05:23:55.214Z,18.61
2022-10-09T05:26:25.136Z,18.61
2022-10-09T05:28:53.246Z,18.61
2022-10-09T05:31:30.146Z,18.60
2022-10-09T05:34:00.185Z,18.53
2022-10-09T05:36:27.653Z,18.54
2022-10-09T05:38:55.813Z,18.55
2022-10-09T05:41:23.131Z,18.53
2022-10-09T05:43:51.210Z,18.45
2022-10-09T05:46:26.395Z,18.47
2022-10-09T05:49:03.129Z,18.42
2022-10-09T05:51:45.759Z,18.43
2022-10-09T05:54:23.947Z,18.29
2022-10-09T05:56:59.228Z,18.38
2022-10-09T05:59:30.028Z,18.42
2022-10-09T06:01:59.937Z,18.43
2022-10-09T06:04:29.132Z,18.46
2022-10-09T06:07:00.184Z,18.46
2022-10-09T06:09:29.524Z,18.49
2022-10-09T06:12:00.144Z,18.48
2022-10-09T06:14:32.720Z,18.44
2022-10-09T06:17:05.207Z,18.37
2022-10-09T06:19:40.166Z,18.40
2022-10-09T06:22:12.184Z,18.43
2022-10-09T06:24:53.956Z,18.43
2022-10-09T06:27:22.506Z,18.51
2022-10-09T06:29:50.047Z,18.54
2022-10-09T06:32:17.527Z,18.55
2022-10-09T06:34:45.137Z,18.66
2022-10-09T06:37:12.623Z,18.70
2022-10-09T06:39:39.958Z,18.74
2022-10-09T06:42:10.572Z,18.74
2022-10-09T06:44:46.032Z,18.83
2022-10-09T06:47:13.570Z,18.88
2022-10-09T06:49:41.638Z,18.94
2022-10-09T06:52:09.249Z,18.99
2022-10-09T06:54:39.524Z,18.98
2022-10-09T06:57:07.260Z,19.09
2022-10-09T06:59:42.762Z,19.17
2022-10-09T07:02:10.469Z,19.19
2022-10-09T07:04:38.093Z,19.36
2022-10-09T07:07:09.001Z,19.42
2022-10-09T07:09:39.858Z,19.43
2022-10-09T07:12:07.526Z,19.43
2022-10-09T07:14:37.831Z,19.68
2022-10-09T07:17:06.150Z,19.80
2022-10-09T07:19:35.456Z,19.88
2022-10-09T07:22:03.001Z,19.94
2022-10-09T07:24:42.497Z,20.12
2022-10-09T07:27:09.969Z,20.19
2022-10-09T07:29:46.470Z,20.31
2022-10-09T07:32:13.814Z,20.32
2022-10-09T07:34:45.025Z,20.32
2022-10-09T07:37:17.232Z,20.40
2022-10-09T07:39:45.550Z,20.50
2022-10-09T07:42:19.109Z,20.46
2022-10-09T07:44:53.849Z,20.46
2022-10-09T07:47:26.282Z,20.59
2022-10-09T07:49:57.159Z,20.64
2022-10-09T07:52:24.266Z,20.71
2022-10-09T07:54:52.458Z,20.68
2022-10-09T07:57:20.236Z,20.79
2022-10-09T07:59:47.562Z,20.86
2022-10-09T08:02:14.948Z,20.94
2022-10-09T08:04:42.285Z,21.06
2022-10-09T08:07:09.709Z,21.14
2022-10-09T08:09:37.377Z,21.12
2022-10-09T08:12:04.896Z,21.12
2022-10-09T08:14:32.491Z,21.14
2022-10-09T08:17:00.671Z,21.12
2022-10-09T08:19:27.965Z,21.11
2022-10-09T08:21:56.240Z,21.13
2022-10-09T08:24:25.649Z,21.16
2022-10-09T08:26:52.997Z,21.12
2022-10-09T08:29:21.503Z,21.13
2022-10-09T08:31:49.028Z,21.11
2022-10-09T08:34:16.613Z,21.07
2022-10-09T08:36:44.993Z,21.05
2022-10-09T08:39:12.504Z,21.12
2022-10-09T08:42:07.226Z,21.18
2022-10-09T08:44:49.618Z,21.21
2022-10-09T08:47:41.360Z,21.23
2022-10-09T08:50:20.654Z,21.16
2022-10-09T08:53:03.246Z,21.09
2022-10-09T08:55:41.588Z,21.14
2022-10-09T08:58:17.932Z,21.13
2022-10-09T09:00:57.651Z,20.98
2022-10-09T09:03:56.536Z,20.94
2022-10-09T09:07:04.177Z,20.95
2022-10-09T09:14:07.921Z,20.89
2022-10-09T09:16:52.505Z,20.91
2022-10-09T09:19:56.562Z,20.98
2022-10-09T09:22:54.156Z,21.04
2022-10-09T09:25:41.231Z,21.05
2022-10-09T09:28:51.011Z,21.01
2022-10-09T09:31:40.067Z,20.97
2022-10-09T09:34:55.440Z,21.02
2022-10-09T09:37:51.636Z,21.03
2022-10-09T09:41:03.231Z,21.09
2022-10-09T09:44:03.349Z,21.24
2022-10-09T09:46:59.306Z,21.32
2022-10-09T09:49:32.559Z,21.42
2022-10-09T09:52:14.740Z,21.46
2022-10-09T09:54:53.766Z,21.49
2022-10-09T09:57:48.689Z,21.55
2022-10-09T10:00:26.535Z,21.59
2022-10-09T10:03:21.145Z,21.71
2022-10-09T10:06:22.084Z,21.78
2022-10-09T10:09:43.216Z,21.97
2022-10-09T10:12:53.038Z,22.13
2022-10-09T10:15:43.030Z,22.30
2022-10-09T10:18:56.584Z,22.60
2022-10-09T10:21:39.856Z,22.66
2022-10-09T10:24:26.796Z,22.76
2022-10-09T10:27:04.688Z,22.91
2022-10-09T10:29:50.303Z,22.99
2022-10-09T10:32:28.498Z,22.96
2022-10-09T10:35:10.934Z,23.00
2022-10-09T10:37:46.150Z,23.03
2022-10-09T10:40:29.268Z,23.11
2022-10-09T10:43:12.530Z,22.95
2022-10-09T10:46:06.183Z,23.10
2022-10-09T10:48:48.386Z,23.25
2022-10-09T10:51:34.139Z,23.38
2022-10-09T10:54:48.357Z,23.46
2022-10-09T10:57:27.051Z,23.57
2022-10-09T11:00:05.986Z,23.76
2022-10-09T11:02:43.301Z,23.73
2022-10-09T11:05:23.571Z,23.80
2022-10-09T11:08:18.646Z,23.74
2022-10-09T11:11:10.617Z,23.75
2022-10-09T11:13:53.431Z,23.70
2022-10-09T11:16:45.106Z,23.82
2022-10-09T11:19:37.336Z,23.83
2022-10-09T11:22:47.313Z,23.60
2022-10-09T11:25:17.725Z,23.63
2022-10-09T11:28:14.066Z,23.67
2022-10-09T11:31:14.652Z,23.81
2022-10-09T11:33:48.658Z,23.86
2022-10-09T11:36:45.710Z,23.84
2022-10-09T11:39:24.071Z,23.97
2022-10-09T11:41:53.833Z,23.93
2022-10-09T11:44:30.352Z,23.90
2022-10-09T11:47:12.433Z,24.05
2022-10-09T11:49:58.221Z,24.08
2022-10-09T11:52:58.801Z,24.07
2022-10-09T11:55:31.537Z,24.03
2022-10-09T11:58:36.467Z,24.10
2022-10-09T12:01:23.928Z,24.09
2022-10-09T12:04:12.830Z,24.04
2022-10-09T12:07:10.146Z,23.98
2022-10-09T12:09:58.302Z,23.95
2022-10-09T12:12:28.583Z,23.99
2022-10-09T12:14:56.013Z,24.00
2022-10-09T12:17:48.680Z,24.06
2022-10-09T12:20:23.176Z,24.06
2022-10-09T12:25:54.455Z,24.00
2022-10-09T12:28:28.401Z,23.88
2022-10-09T12:30:59.586Z,23.85
2022-10-09T12:33:35.859Z,23.87
2022-10-09T12:36:15.666Z,23.96
2022-10-09T12:38:43.987Z,23.87
2022-10-09T12:41:35.295Z,23.99
2022-10-09T12:44:29.993Z,23.97
2022-10-09T12:47:05.215Z,24.09
2022-10-09T12:49:34.019Z,24.17
2022-10-09T12:52:02.642Z,24.10
2022-10-09T12:54:32.248Z,24.05
2022-10-09T12:57:01.716Z,23.91
2022-10-09T12:59:30.199Z,23.93
2022-10-09T13:02:01.343Z,24.06
2022-10-09T13:04:33.844Z,24.01
2022-10-09T13:07:07.504Z,23.99
2022-10-09T13:09:38.642Z,23.87
2022-10-09T13:12:23.466Z,23.95
2022-10-09T13:15:01.949Z,23.95
2022-10-09T13:17:42.437Z,23.96
2022-10-09T13:20:13.101Z,24.00
2022-10-09T13:22:55.875Z,24.05
2022-10-09T13:25:30.466Z,23.94
2022-10-09T13:28:00.733Z,23.96
2022-10-09T13:30:36.450Z,24.01
2022-10-09T13:33:04.173Z,23.99
2022-10-09T13:35:32.069Z,23.97
2022-10-09T13:38:02.351Z,24.02
2022-10-09T13:40:36.995Z,23.88
2022-10-09T13:43:06.550Z,23.88
2022-10-09T13:45:48.149Z,23.82
2022-10-09T13:48:15.988Z,23.88
2022-10-09T13:50:54.699Z,23.89
2022-10-09T13:53:26.136Z,23.85
2022-10-09T13:56:00.024Z,23.87
2022-10-09T13:58:29.195Z,23.80
2022-10-09T14:00:56.865Z,23.86
2022-10-09T14:03:24.875Z,23.75
2022-10-09T14:06:00.239Z,23.72
2022-10-09T14:08:30.565Z,23.66
2022-10-09T14:11:01.079Z,23.66
2022-10-09T14:13:30.194Z,23.66
2022-10-09T14:15:58.248Z,23.68
2022-10-09T14:18:26.563Z,23.68
2022-10-09T14:20:53.955Z,23.61
2022-10-09T14:23:21.276Z,23.73
2022-10-09T14:25:48.789Z,23.77
2022-10-09T14:28:16.983Z,23.79
2022-10-09T14:30:46.898Z,23.82
2022-10-09T14:33:14.845Z,23.82
2022-10-09T14:35:42.193Z,23.87
2022-10-09T14:38:09.881Z,23.87
2022-10-09T14:40:43.398Z,23.86
2022-10-09T14:43:11.862Z,23.79
2022-10-09T14:45:39.990Z,23.66
2022-10-09T14:48:07.376Z,23.70
2022-10-09T14:50:37.057Z,23.76
2022-10-09T14:53:08.643Z,23.74
2022-10-09T14:55:38.403Z,23.80
2022-10-09T14:58:05.708Z,23.67
2022-10-09T15:00:49.634Z,23.68
2022-10-09T15:03:19.035Z,23.70
2022-10-09T15:05:46.307Z,23.82
2022-10-09T15:08:17.642Z,23.84
2022-10-09T15:10:45.104Z,23.73
2022-10-09T15:13:12.568Z,23.68
2022-10-09T15:15:40.121Z,23.63
2022-10-09T15:18:07.527Z,23.68
2022-10-09T15:20:37.734Z,23.63
2022-10-09T15:23:05.139Z,23.60
2022-10-09T15:25:32.484Z,23.60
2022-10-09T15:28:03.239Z,23.60
2022-10-09T15:30:31.119Z,23.55
2022-10-09T15:33:03.387Z,23.53
2022-10-09T15:35:33.658Z,23.44
2022-10-09T15:38:01.804Z,23.43
2022-10-09T15:40:29.246Z,23.36
2022-10-09T15:42:56.415Z,23.42
2022-10-09T15:45:23.842Z,23.40
2022-10-09T15:47:56.314Z,23.31
2022-10-09T15:50:23.997Z,23.31
2022-10-09T15:52:51.583Z,23.26
2022-10-09T15:55:19.207Z,23.32
2022-10-09T15:57:49.830Z,23.32
2022-10-09T16:00:18.012Z,23.28
2022-10-09T16:02:45.405Z,23.20
2022-10-09T16:05:16.027Z,23.15
2022-10-09T16:07:48.471Z,23.06
2022-10-09T16:10:16.151Z,23.06
2022-10-09T16:12:43.697Z,23.09
2022-10-09T16:15:11.795Z,23.04
2022-10-09T16:17:39.226Z,23.04
2022-10-09T16:20:07.680Z,23.08
2022-10-09T16:22:45.606Z,22.97
2022-10-09T16:25:13.842Z,23.01
2022-10-09T16:27:49.427Z,23.01
2022-10-09T16:30:17.019Z,23.05
2022-10-09T16:32:44.450Z,23.03
2022-10-09T16:35:12.057Z,23.02
2022-10-09T16:37:39.533Z,22.95
2022-10-09T16:40:08.184Z,22.96
2022-10-09T16:42:44.477Z,22.97
2022-10-09T16:45:45.616Z,22.96
2022-10-09T16:48:12.939Z,22.94
2022-10-09T16:50:50.936Z,22.89
2022-10-09T16:53:51.925Z,22.87
2022-10-09T16:56:22.243Z,22.84
2022-10-09T16:58:50.295Z,22.83
2022-10-09T17:01:18.203Z,22.81
2022-10-09T17:03:49.108Z,22.79
2022-10-09T17:06:23.982Z,22.83
2022-10-09T17:08:59.552Z,22.80
2022-10-09T17:11:32.998Z,22.74
2022-10-09T17:14:00.943Z,22.75
2022-10-09T17:16:32.806Z,22.65
2022-10-09T17:19:00.568Z,22.71
2022-10-09T17:21:32.884Z,22.68
2022-10-09T17:24:04.236Z,22.69
2022-10-09T17:26:38.844Z,22.69
2022-10-09T17:29:06.645Z,22.64
2022-10-09T17:31:35.391Z,22.66
2022-10-09T17:34:04.663Z,22.65
2022-10-09T17:36:46.042Z,22.63
2022-10-09T17:39:17.568Z,22.60
2022-10-09T17:41:49.756Z,22.60
2022-10-09T17:44:39.537Z,22.58
2022-10-09T17:47:38.440Z,22.59
2022-10-09T17:50:11.505Z,22.57
2022-10-09T17:52:39.004Z,22.57
2022-10-09T17:55:07.156Z,22.57
2022-10-09T17:57:41.401Z,22.59
2022-10-09T18:00:13.661Z,22.59
2022-10-09T18:02:41.196Z,22.58
2022-10-09T18:05:11.741Z,22.55
2022-10-09T18:07:39.878Z,22.58
2022-10-09T18:10:10.194Z,22.59
2022-10-09T18:12:39.621Z,22.57
2022-10-09T18:15:07.778Z,22.54
2022-10-09T18:17:37.991Z,22.53
2022-10-09T18:20:06.234Z,22.50
2022-10-09T18:22:38.477Z,22.48
2022-10-09T18:25:10.083Z,22.48
2022-10-09T18:27:37.723Z,22.45
2022-10-09T18:30:14.032Z,22.44
2022-10-09T18:32:44.933Z,22.44
2022-10-09T18:35:55.142Z,22.44
2022-10-09T18:38:35.175Z,22.43
2022-10-09T18:41:05.932Z,22.43
2022-10-09T18:43:39.912Z,22.44
2022-10-09T18:46:08.234Z,22.44
2022-10-09T18:48:39.669Z,22.44
2022-10-09T18:51:16.679Z,22.44
2022-10-09T18:53:47.445Z,22.44
2022-10-09T18:56:21.720Z,22.44
2022-10-09T18:58:52.717Z,22.44
2022-10-09T19:01:21.169Z,22.43
2022-10-09T19:03:50.251Z,22.44
2022-10-09T19:06:21.343Z,22.45
2022-10-09T19:08:53.156Z,22.43
2022-10-09T19:11:23.524Z,22.42
2022-10-09T19:13:51.370Z,22.44
2022-10-09T19:16:28.439Z,22.44
2022-10-09T19:18:56.919Z,22.44
2022-10-09T19:21:25.012Z,22.44
2022-10-09T19:23:53.914Z,22.43
2022-10-09T19:26:24.745Z,22.41
2022-10-09T19:28:55.587Z,22.42
2022-10-09T19:31:23.179Z,22.41
2022-10-09T19:33:50.649Z,22.40
2022-10-09T19:36:18.378Z,22.40
2022-10-09T19:38:47.127Z,22.43
2022-10-09T19:41:18.601Z,22.44
2022-10-09T19:44:02.584Z,22.46
2022-10-09T19:46:40.959Z,22.47
2022-10-09T19:49:13.915Z,22.45
2022-10-09T19:51:44.657Z,22.48
2022-10-09T19:54:16.004Z,22.50
2022-10-09T19:56:43.561Z,22.50
2022-10-09T19:59:16.429Z,22.51
2022-10-09T20:01:45.822Z,22.53
2022-10-09T20:04:14.844Z,22.54
2022-10-09T20:06:44.849Z,22.53
2022-10-09T20:09:12.673Z,22.53
2022-10-09T20:11:45.627Z,22.55
2022-10-09T20:14:16.413Z,22.56
2022-10-09T20:16:44.357Z,22.56
2022-10-09T20:19:13.425Z,22.56
2022-10-09T20:21:41.416Z,22.55
2022-10-09T20:24:08.838Z,22.55
2022-10-09T20:26:39.786Z,22.53
2022-10-09T20:29:11.358Z,22.52
2022-10-09T20:31:39.454Z,22.53
2022-10-09T20:34:07.340Z,22.51
2022-10-09T20:36:39.695Z,22.53
2022-10-09T20:39:12.219Z,22.51
2022-10-09T20:41:41.089Z,22.51
2022-10-09T20:44:09.172Z,22.37
2022-10-09T20:46:38.887Z,22.42
2022-10-09T20:49:13.175Z,22.38
2022-10-09T20:51:46.818Z,22.36
2022-10-09T20:54:17.722Z,22.37
2022-10-09T20:56:46.425Z,22.37
2022-10-09T20:59:14.376Z,22.39
2022-10-09T21:01:42.517Z,22.41
2022-10-09T21:04:11.904Z,22.43
2022-10-09T21:06:39.951Z,22.44
2022-10-09T21:09:10.891Z,22.42
2022-10-09T21:11:42.800Z,22.42
2022-10-09T21:14:10.914Z,22.34
2022-10-09T21:16:38.409Z,22.35
2022-10-09T21:19:08.463Z,22.37
2022-10-09T21:21:35.898Z,22.39
2022-10-09T21:24:03.511Z,22.33
2022-10-09T21:26:47.108Z,22.38
2022-10-09T21:29:14.917Z,22.35
2022-10-09T21:31:45.506Z,22.32
2022-10-09T21:34:12.865Z,22.36
2022-10-09T21:37:16.388Z,22.28
2022-10-09T21:39:39.583Z,22.27
2022-10-09T21:42:06.976Z,22.23
2022-10-09T21:44:34.544Z,22.23
2022-10-09T21:47:02.078Z,22.24
2022-10-09T21:49:30.602Z,22.16
2022-10-09T21:51:58.536Z,22.18
2022-10-09T21:54:26.357Z,22.22
2022-10-09T21:56:53.941Z,22.23
2022-10-09T21:59:23.185Z,22.14
2022-10-09T22:01:56.034Z,22.06
2022-10-09T22:04:24.725Z,22.15
2022-10-09T22:06:56.953Z,22.08
2022-10-09T22:09:25.376Z,22.11
2022-10-09T22:11:53.000Z,22.07
2022-10-09T22:14:21.315Z,22.04
2022-10-09T22:16:50.863Z,22.10
2022-10-09T22:19:34.753Z,22.03
2022-10-09T22:22:03.819Z,22.02
2022-10-09T22:24:34.855Z,21.98
2022-10-09T22:27:09.041Z,21.92
2022-10-09T22:29:41.177Z,21.92
2022-10-09T22:32:11.290Z,21.93
2022-10-09T22:34:39.116Z,22.00
2022-10-09T22:37:07.648Z,21.96
2022-10-09T22:39:36.182Z,21.96
2022-10-09T22:42:06.201Z,21.98
2022-10-09T22:44:36.040Z,22.01
2022-10-09T22:47:05.525Z,22.03
2022-10-09T22:49:36.918Z,22.04
2022-10-09T22:52:05.243Z,22.07
2022-10-09T22:54:33.073Z,22.10
2022-10-09T22:57:00.618Z,22.03
2022-10-09T22:59:28.717Z,22.01
2022-10-09T23:01:58.177Z,22.01
2022-10-09T23:04:25.666Z,21.99
2022-10-09T23:07:10.565Z,21.92
2022-10-09T23:09:38.375Z,21.87
2022-10-09T23:12:12.955Z,21.93
2022-10-09T23:14:42.832Z,21.97
2022-10-09T23:17:20.568Z,22.00
2022-10-09T23:19:49.762Z,22.00
2022-10-09T23:22:21.369Z,21.98
2022-10-09T23:24:49.169Z,22.00
2022-10-09T23:27:17.530Z,21.89
2022-10-09T23:29:45.651Z,21.94
2022-10-09T23:32:14.298Z,21.96
2022-10-09T23:34:45.716Z,21.89
2022-10-09T23:37:13.628Z,21.90
2022-10-09T23:39:41.394Z,21.90
2022-10-09T23:42:09.682Z,21.93
2022-10-09T23:44:37.642Z,21.93
2022-10-09T23:47:05.311Z,21.92
2022-10-09T23:49:33.055Z,21.85
2022-10-09T23:52:02.149Z,21.88
2022-10-09T23:54:29.957Z,21.91
2022-10-09T23:57:01.625Z,21.93
2022-10-09T23:59:29.551Z,21.91
